createdAt,value
2018-06-08T00:02:14.769Z,15.70
2018-06-08T00:04:42.885Z,17.37
2018-06-08T00:07:11.011Z,17.63
2018-06-08T00:09:39.152Z,18.20
2018-06-08T00:12:07.269Z,17.60
2018-06-08T00:14:35.433Z,18.97
2018-06-08T00:17:03.565Z,17.63
2018-06-08T00:19:31.694Z,16.17
2018-06-08T00:21:59.839Z,16.10
2018-06-08T00:24:28.010Z,14.07
2018-06-08T00:26:56.130Z,14.83
2018-06-08T00:29:24.258Z,14.77
2018-06-08T00:31:52.371Z,20.13
2018-06-08T00:34:20.523Z,16.70
2018-06-08T00:36:48.638Z,17.30
2018-06-08T00:39:16.767Z,16.80
2018-06-08T00:41:44.881Z,16.30
2018-06-08T00:44:13.002Z,15.07
2018-06-08T00:46:41.157Z,16.90
2018-06-08T00:49:09.049Z,16.20
2018-06-08T00:51:37.161Z,15.47
2018-06-08T00:54:05.419Z,14.10
2018-06-08T00:56:44.952Z,13.13
2018-06-08T00:59:13.085Z,12.47
2018-06-08T01:01:41.214Z,12.57
2018-06-08T01:04:09.385Z,12.77
2018-06-08T01:06:37.510Z,11.80
2018-06-08T01:09:08.388Z,12.00
2018-06-08T01:11:36.614Z,12.70
2018-06-08T01:14:04.770Z,11.27
2018-06-08T01:16:32.925Z,11.83
2018-06-08T01:19:01.115Z,12.90
2018-06-08T01:21:29.259Z,12.40
2018-06-08T01:23:57.387Z,10.87
2018-06-08T01:26:25.534Z,11.17
2018-06-08T01:28:53.670Z,11.77
2018-06-08T01:31:21.826Z,9.43
2018-06-08T01:33:49.971Z,9.87
2018-06-08T01:36:18.106Z,9.70
2018-06-08T01:38:46.250Z,10.40
2018-06-08T01:41:14.390Z,10.97
2018-06-08T01:43:42.518Z,11.47
2018-06-08T01:46:10.695Z,11.40
2018-06-08T01:48:38.816Z,12.80
2018-06-08T01:51:06.962Z,11.07
2018-06-08T01:53:35.122Z,12.70
2018-06-08T01:56:03.298Z,12.83
2018-06-08T01:58:31.435Z,13.37
2018-06-08T02:00:59.579Z,12.93
2018-06-08T02:03:27.719Z,13.57
2018-06-08T02:05:55.846Z,14.03
2018-06-08T02:08:24.008Z,12.93
2018-06-08T02:10:52.138Z,13.23
2018-06-08T02:13:20.279Z,12.47
2018-06-08T02:15:48.415Z,14.17
2018-06-08T02:18:16.539Z,12.23
2018-06-08T02:20:44.676Z,11.53
2018-06-08T02:23:12.883Z,10.13
2018-06-08T02:25:41.015Z,8.97
2018-06-08T02:28:09.136Z,9.20
2018-06-08T02:30:37.343Z,8.60
2018-06-08T02:33:05.470Z,8.83
2018-06-08T02:35:33.602Z,8.50
2018-06-08T02:38:01.737Z,9.47
2018-06-08T02:40:29.890Z,13.43
2018-06-08T02:42:57.994Z,9.73
2018-06-08T02:45:26.136Z,9.63
2018-06-08T02:47:54.254Z,10.90
2018-06-08T02:50:22.399Z,9.63
2018-06-08T02:52:50.527Z,12.23
2018-06-08T02:55:18.684Z,9.93
2018-06-08T02:57:46.827Z,9.17
2018-06-08T03:00:14.992Z,8.63
2018-06-08T03:02:43.115Z,8.73
2018-06-08T03:05:11.267Z,12.20
2018-06-08T03:07:39.417Z,14.23
2018-06-08T03:10:07.573Z,13.03
2018-06-08T03:12:35.690Z,13.17
2018-06-08T03:15:03.829Z,14.30
2018-06-08T03:17:31.984Z,15.67
2018-06-08T03:25:49.654Z,15.83
2018-06-08T03:28:17.882Z,15.60
2018-06-08T03:30:46.031Z,16.57
2018-06-08T03:33:14.175Z,17.43
2018-06-08T03:35:42.295Z,15.47
2018-06-08T03:38:10.438Z,16.07
2018-06-08T03:40:38.574Z,17.87
2018-06-08T03:43:06.715Z,16.43
2018-06-08T03:45:34.855Z,18.00
2018-06-08T03:48:02.994Z,17.50
2018-06-08T03:50:31.129Z,16.07
2018-06-08T03:52:59.292Z,16.50
2018-06-08T03:55:27.418Z,15.50
2018-06-08T03:57:55.580Z,16.63
2018-06-08T04:00:23.790Z,17.57
2018-06-08T04:02:52.030Z,16.57
2018-06-08T04:05:20.216Z,16.70
2018-06-08T04:07:48.342Z,15.97
2018-06-08T04:10:16.478Z,16.60
2018-06-08T04:12:44.662Z,16.27
2018-06-08T04:15:12.803Z,15.20
2018-06-08T04:17:40.998Z,16.47
2018-06-08T04:20:09.154Z,16.83
2018-06-08T04:22:37.286Z,15.83
2018-06-08T04:25:05.438Z,16.00
2018-06-08T04:27:33.579Z,17.20
2018-06-08T04:30:01.797Z,16.60
2018-06-08T04:32:29.942Z,15.60
2018-06-08T04:34:58.081Z,15.13
2018-06-08T04:37:26.234Z,14.63
2018-06-08T04:39:54.360Z,14.63
2018-06-08T04:42:22.503Z,15.37
2018-06-08T04:44:50.655Z,15.77
2018-06-08T04:47:18.786Z,15.67
2018-06-08T04:49:46.914Z,15.87
2018-06-08T04:52:15.039Z,16.93
2018-06-08T04:54:43.708Z,15.77
2018-06-08T04:57:11.827Z,15.87
2018-06-08T04:59:39.958Z,16.97
2018-06-08T05:02:08.098Z,16.43
2018-06-08T05:04:36.281Z,17.87
2018-06-08T05:07:04.567Z,17.80
2018-06-08T05:09:32.710Z,18.23
2018-06-08T05:12:00.884Z,19.03
2018-06-08T05:14:29.058Z,20.03
2018-06-08T05:16:57.187Z,19.47
2018-06-08T05:19:25.322Z,17.37
2018-06-08T05:21:53.479Z,15.47
2018-06-08T05:24:21.675Z,18.33
2018-06-08T05:26:49.842Z,17.13
2018-06-08T05:29:17.984Z,17.07
2018-06-08T05:31:47.029Z,18.27
2018-06-08T05:34:15.130Z,18.10
2018-06-08T05:36:43.303Z,17.40
2018-06-08T05:39:11.459Z,18.07
2018-06-08T05:41:39.610Z,16.60
2018-06-08T05:44:07.742Z,16.80
2018-06-08T05:46:35.878Z,16.23
2018-06-08T05:49:04.041Z,16.17
2018-06-08T05:51:32.207Z,16.10
2018-06-08T05:54:00.333Z,14.57
2018-06-08T05:56:28.459Z,14.40
2018-06-08T05:58:56.610Z,12.70
2018-06-08T06:01:24.792Z,14.33
2018-06-08T06:03:52.941Z,14.93
2018-06-08T06:06:21.067Z,16.03
2018-06-08T06:08:49.199Z,17.47
2018-06-08T06:11:17.367Z,17.03
2018-06-08T06:13:45.466Z,17.47
2018-06-08T06:16:13.627Z,19.00
2018-06-08T06:18:41.773Z,19.23
2018-06-08T06:21:09.985Z,16.27
2018-06-08T06:23:38.134Z,16.40
2018-06-08T06:26:06.309Z,15.90
2018-06-08T06:28:34.430Z,14.73
2018-06-08T06:31:02.658Z,14.80
2018-06-08T06:33:30.759Z,14.30
2018-06-08T06:35:58.887Z,14.10
2018-06-08T06:38:27.032Z,13.63
2018-06-08T06:40:55.159Z,14.30
2018-06-08T06:43:23.282Z,14.70
2018-06-08T06:45:51.407Z,14.43
2018-06-08T06:48:19.539Z,14.93
2018-06-08T06:50:47.660Z,13.53
2018-06-08T06:53:15.867Z,14.53
2018-06-08T06:55:43.903Z,15.67
2018-06-08T06:58:12.038Z,15.37
2018-06-08T07:00:40.191Z,16.43
2018-06-08T07:03:08.352Z,15.03
2018-06-08T07:05:36.490Z,16.17
2018-06-08T07:08:04.612Z,13.83
2018-06-08T07:10:32.731Z,15.20
2018-06-08T07:13:00.878Z,14.47
2018-06-08T07:15:29.006Z,14.97
2018-06-08T07:17:57.157Z,14.27
2018-06-08T07:20:25.286Z,14.07
2018-06-08T07:22:53.415Z,13.87
2018-06-08T07:25:21.518Z,14.30
2018-06-08T07:27:49.683Z,14.10
2018-06-08T07:30:17.820Z,13.60
2018-06-08T07:32:45.940Z,15.10
2018-06-08T07:35:14.067Z,15.33
2018-06-08T07:37:42.204Z,15.03
2018-06-08T07:40:10.347Z,14.70
2018-06-08T07:42:38.442Z,14.63
2018-06-08T07:45:06.636Z,14.80
2018-06-08T07:47:34.754Z,16.13
2018-06-08T07:50:02.866Z,14.67
2018-06-08T07:52:30.999Z,15.83
2018-06-08T07:54:59.118Z,14.63
2018-06-08T07:57:27.261Z,9.93
2018-06-08T07:59:55.402Z,12.60
2018-06-08T08:02:23.575Z,12.30
2018-06-08T08:04:51.708Z,11.77
2018-06-08T08:07:19.843Z,13.33
2018-06-08T08:09:47.982Z,13.47
2018-06-08T08:12:16.118Z,12.53
2018-06-08T08:14:44.382Z,12.30
2018-06-08T08:17:12.523Z,12.13
2018-06-08T08:19:40.670Z,11.37
2018-06-08T08:22:08.813Z,11.53
2018-06-08T08:24:36.990Z,10.90
2018-06-08T08:27:05.230Z,11.80
2018-06-08T08:29:33.382Z,11.90
2018-06-08T08:32:01.508Z,11.33
2018-06-08T08:34:29.654Z,10.03
2018-06-08T08:36:57.813Z,9.70
2018-06-08T08:39:25.963Z,10.90
2018-06-08T08:41:54.107Z,10.60
2018-06-08T08:44:22.268Z,9.67
2018-06-08T08:46:50.415Z,10.87
2018-06-08T08:49:18.562Z,10.77
2018-06-08T08:51:46.734Z,10.43
2018-06-08T08:54:14.852Z,9.83
2018-06-08T08:56:43.033Z,9.97
2018-06-08T08:59:11.143Z,9.63
2018-06-08T09:01:39.294Z,8.20
2018-06-08T09:04:07.456Z,7.67
2018-06-08T09:06:35.604Z,7.97
2018-06-08T09:09:05.350Z,8.33
2018-06-08T09:11:33.544Z,9.43
2018-06-08T09:14:01.662Z,8.97
2018-06-08T09:16:29.814Z,9.60
2018-06-08T09:18:57.978Z,10.27
2018-06-08T09:21:26.138Z,10.60
2018-06-08T09:23:54.274Z,10.47
2018-06-08T09:26:22.437Z,10.43
2018-06-08T09:28:50.630Z,9.50
2018-06-08T09:31:18.810Z,8.93
2018-06-08T09:33:46.989Z,8.57
2018-06-08T09:36:15.151Z,9.10
2018-06-08T09:38:43.335Z,10.20
2018-06-08T09:41:11.531Z,10.03
2018-06-08T09:43:39.695Z,10.27
2018-06-08T09:46:07.903Z,11.30
2018-06-08T09:48:36.009Z,10.43
2018-06-08T09:51:04.184Z,10.77
2018-06-08T09:53:32.323Z,10.83
2018-06-08T09:56:00.466Z,11.87
2018-06-08T09:58:28.634Z,10.67
2018-06-08T10:00:56.779Z,9.53
2018-06-08T10:03:24.958Z,9.10
2018-06-08T10:05:53.233Z,8.43
2018-06-08T10:08:21.394Z,9.77
2018-06-08T10:10:49.565Z,9.27
2018-06-08T10:13:17.686Z,9.43
2018-06-08T10:15:45.855Z,10.87
2018-06-08T10:18:13.999Z,10.37
2018-06-08T10:20:42.152Z,10.33
2018-06-08T10:23:10.347Z,11.67
2018-06-08T10:25:38.519Z,10.83
2018-06-08T10:28:06.689Z,10.27
2018-06-08T10:30:34.897Z,9.93
2018-06-08T10:33:03.037Z,10.70
2018-06-08T10:35:31.159Z,12.00
2018-06-08T10:37:59.330Z,11.37
2018-06-08T10:40:27.495Z,10.63
2018-06-08T10:42:55.675Z,11.33
2018-06-08T10:45:23.814Z,10.37
2018-06-08T10:47:51.993Z,11.10
2018-06-08T10:50:20.114Z,10.13
2018-06-08T10:52:48.242Z,9.80
2018-06-08T10:55:16.404Z,10.10
2018-06-08T10:57:44.577Z,11.90
2018-06-08T11:00:12.711Z,9.80
2018-06-08T11:02:40.859Z,9.53
2018-06-08T11:05:09.019Z,11.27
2018-06-08T11:07:37.214Z,10.50
2018-06-08T11:10:05.347Z,10.90
2018-06-08T11:12:33.606Z,10.37
2018-06-08T11:15:01.845Z,10.13
2018-06-08T11:17:29.997Z,9.07
2018-06-08T11:19:58.172Z,10.50
2018-06-08T11:22:26.307Z,10.17
2018-06-08T11:24:54.458Z,9.80
2018-06-08T11:27:22.595Z,9.40
2018-06-08T11:29:50.740Z,10.53
2018-06-08T11:32:18.884Z,9.87
2018-06-08T11:34:47.042Z,9.57
2018-06-08T11:37:15.189Z,11.17
2018-06-08T11:39:43.336Z,10.50
2018-06-08T11:42:11.487Z,10.50
2018-06-08T11:44:39.614Z,8.90
2018-06-08T11:47:07.763Z,10.57
2018-06-08T11:49:35.934Z,9.83
2018-06-08T11:52:04.139Z,9.60
2018-06-08T11:54:32.286Z,10.57
2018-06-08T11:57:00.423Z,10.03
2018-06-08T11:59:28.602Z,10.30
2018-06-08T12:01:56.747Z,10.80
2018-06-08T12:04:24.941Z,10.23
2018-06-08T12:06:53.092Z,9.63
2018-06-08T12:09:21.334Z,9.87
2018-06-08T12:11:49.516Z,9.97
2018-06-08T12:14:17.625Z,9.87
2018-06-08T12:16:45.744Z,10.00
2018-06-08T12:19:13.874Z,11.50
2018-06-08T12:21:42.043Z,10.63
2018-06-08T12:24:10.224Z,9.60
2018-06-08T12:26:38.364Z,10.87
2018-06-08T12:29:06.474Z,13.00
2018-06-08T12:31:34.599Z,11.57
2018-06-08T12:34:02.735Z,12.20
2018-06-08T12:36:30.864Z,12.10
2018-06-08T12:38:59.004Z,11.90
2018-06-08T12:41:27.130Z,10.67
2018-06-08T12:43:55.262Z,10.07
2018-06-08T12:46:23.371Z,11.47
2018-06-08T12:48:51.559Z,12.40
2018-06-08T12:51:19.667Z,12.07
2018-06-08T12:53:47.870Z,11.67
2018-06-08T12:56:15.995Z,10.70
2018-06-08T12:58:44.186Z,10.97
2018-06-08T13:01:12.306Z,12.07
2018-06-08T13:03:40.435Z,12.00
2018-06-08T13:06:08.590Z,11.63
2018-06-08T13:08:36.743Z,11.87
2018-06-08T13:11:04.871Z,10.30
2018-06-08T13:13:32.978Z,10.67
2018-06-08T13:16:01.079Z,10.03
2018-06-08T13:18:29.216Z,10.23
2018-06-08T13:20:57.375Z,11.00
2018-06-08T13:23:25.487Z,10.57
2018-06-08T13:25:53.618Z,10.20
2018-06-08T13:28:21.778Z,10.30
2018-06-08T13:30:49.918Z,11.43
2018-06-08T13:33:18.040Z,10.23
2018-06-08T13:35:46.162Z,10.33
2018-06-08T13:38:14.302Z,10.73
2018-06-08T13:40:42.459Z,10.47
2018-06-08T13:43:10.686Z,10.83
2018-06-08T13:45:38.831Z,10.67
2018-06-08T13:48:06.980Z,10.63
2018-06-08T13:50:35.095Z,10.30
2018-06-08T13:53:03.235Z,10.90
2018-06-08T13:55:31.397Z,10.57
2018-06-08T13:57:59.508Z,10.33
2018-06-08T14:00:27.665Z,9.70
2018-06-08T14:02:55.818Z,9.80
2018-06-08T14:05:23.943Z,9.90
2018-06-08T14:07:52.074Z,10.27
2018-06-08T14:10:20.204Z,9.97
2018-06-08T14:12:48.346Z,10.33
2018-06-08T14:15:16.498Z,10.57
2018-06-08T14:17:44.647Z,9.97
2018-06-08T14:20:12.771Z,9.97
2018-06-08T14:25:15.622Z,10.80
2018-06-08T14:27:43.746Z,10.30
2018-06-08T14:30:11.891Z,9.97
2018-06-08T14:32:40.006Z,10.17
2018-06-08T14:35:08.156Z,10.00
2018-06-08T14:37:36.267Z,10.97
2018-06-08T14:40:04.383Z,9.40
2018-06-08T14:42:32.541Z,10.13
2018-06-08T14:45:00.694Z,10.40
2018-06-08T14:47:28.879Z,10.87
2018-06-08T14:49:56.962Z,10.13
2018-06-08T14:52:25.086Z,10.00
2018-06-08T14:54:53.223Z,10.63
2018-06-08T14:57:21.356Z,10.07
2018-06-08T14:59:49.483Z,10.50
2018-06-08T15:02:17.626Z,10.70
2018-06-08T15:04:45.750Z,10.30
2018-06-08T15:07:13.891Z,11.07
2018-06-08T15:09:42.019Z,10.47
2018-06-08T15:12:10.199Z,10.43
2018-06-08T15:14:38.332Z,10.80
2018-06-08T15:17:06.511Z,10.57
2018-06-08T15:19:34.674Z,10.27
2018-06-08T15:22:02.802Z,9.73
2018-06-08T15:24:30.934Z,10.90
2018-06-08T15:26:59.090Z,10.17
2018-06-08T15:29:27.239Z,11.23
2018-06-08T15:31:55.362Z,12.10
2018-06-08T15:34:23.494Z,11.27
2018-06-08T15:36:51.642Z,11.93
2018-06-08T15:39:19.786Z,12.23
2018-06-08T15:41:48.158Z,12.67
2018-06-08T15:44:16.303Z,12.53
2018-06-08T15:46:44.486Z,12.50
2018-06-08T15:49:12.654Z,13.03
2018-06-08T15:51:40.822Z,13.00
2018-06-08T15:54:08.948Z,13.17
2018-06-08T15:56:37.082Z,12.57
2018-06-08T15:59:05.234Z,12.47
2018-06-08T16:01:33.379Z,12.20
2018-06-08T16:04:01.514Z,11.33
2018-06-08T16:06:29.667Z,12.67
2018-06-08T16:08:57.810Z,12.97
2018-06-08T16:11:25.958Z,12.50
2018-06-08T16:13:54.101Z,13.10
2018-06-08T16:16:22.247Z,13.03
2018-06-08T16:18:50.390Z,13.00
2018-06-08T16:21:18.538Z,12.53
2018-06-08T16:23:47.078Z,12.70
2018-06-08T16:26:15.240Z,13.03
2018-06-08T16:28:43.371Z,11.83
2018-06-08T16:31:11.499Z,12.30
2018-06-08T16:33:39.655Z,11.67
2018-06-08T16:36:07.824Z,11.33
2018-06-08T16:38:35.928Z,11.33
2018-06-08T16:41:04.049Z,10.67
2018-06-08T16:43:32.178Z,9.63
2018-06-08T16:46:00.292Z,9.67
2018-06-08T16:48:28.437Z,9.83
2018-06-08T16:50:56.555Z,9.60
2018-06-08T16:53:24.676Z,10.30
2018-06-08T16:55:52.866Z,10.47
2018-06-08T16:58:20.942Z,10.33
2018-06-08T17:00:49.078Z,10.13
2018-06-08T17:03:17.201Z,10.67
2018-06-08T17:05:45.334Z,9.83
2018-06-08T17:08:13.446Z,9.87
2018-06-08T17:10:41.592Z,9.43
2018-06-08T17:13:09.742Z,9.67
2018-06-08T17:15:37.862Z,9.67
2018-06-08T17:18:06.026Z,8.83
2018-06-08T17:20:34.130Z,9.10
2018-06-08T17:23:02.292Z,8.97
2018-06-08T17:25:30.461Z,9.70
2018-06-08T17:27:58.623Z,9.50
2018-06-08T17:30:26.762Z,8.97
2018-06-08T17:32:54.886Z,9.70
2018-06-08T17:35:23.017Z,10.00
2018-06-08T17:37:51.133Z,9.73
2018-06-08T17:40:19.273Z,17.17
2018-06-08T17:42:47.415Z,11.57
2018-06-08T17:45:15.555Z,11.30
2018-06-08T17:47:43.682Z,11.20
2018-06-08T17:50:11.807Z,13.17
2018-06-08T17:52:40.020Z,12.50
2018-06-08T17:55:08.146Z,12.70
2018-06-08T17:57:41.483Z,12.60
2018-06-08T18:00:10.293Z,12.47
2018-06-08T18:02:38.395Z,9.60
2018-06-08T18:05:06.815Z,8.67
2018-06-08T18:07:34.922Z,6.10
2018-06-08T18:10:03.099Z,7.80
2018-06-08T18:12:31.327Z,8.80
2018-06-08T18:15:01.350Z,10.17
2018-06-08T18:17:30.577Z,10.43
2018-06-08T18:19:59.223Z,16.53
2018-06-08T18:22:27.352Z,12.70
2018-06-08T18:24:55.594Z,11.00
2018-06-08T18:27:23.778Z,9.13
2018-06-08T18:29:51.963Z,8.83
2018-06-08T18:32:20.349Z,10.63
2018-06-08T18:34:49.351Z,15.80
2018-06-08T18:37:17.750Z,39.92
2018-06-08T18:39:46.073Z,30.73
2018-06-08T18:42:14.303Z,30.47
2018-06-08T18:44:42.652Z,28.43
2018-06-08T18:47:11.158Z,26.30
2018-06-08T18:49:39.420Z,23.30
2018-06-08T18:52:07.538Z,22.80
2018-06-08T18:54:35.699Z,17.47
2018-06-08T18:57:04.172Z,17.03
2018-06-08T18:59:32.318Z,16.63
2018-06-08T19:02:00.434Z,18.90
2018-06-08T19:04:28.554Z,15.07
2018-06-08T19:06:56.687Z,21.33
2018-06-08T19:09:24.838Z,19.23
2018-06-08T19:11:52.974Z,16.80
2018-06-08T19:14:21.888Z,16.80
2018-06-08T19:16:49.994Z,15.77
2018-06-08T19:19:18.123Z,14.90
2018-06-08T19:21:46.262Z,13.23
2018-06-08T19:24:14.647Z,14.60
2018-06-08T19:26:42.756Z,18.53
2018-06-08T19:29:11.421Z,24.60
2018-06-08T19:31:39.968Z,36.73
2018-06-08T19:34:08.264Z,41.30
2018-06-08T19:36:37.304Z,31.80
2018-06-08T19:39:08.881Z,37.93
2018-06-08T19:41:37.155Z,24.97
2018-06-08T19:44:05.293Z,21.83
2018-06-08T19:46:33.441Z,27.30
2018-06-08T19:49:01.555Z,27.57
2018-06-08T19:51:29.697Z,26.73
2018-06-08T19:53:57.834Z,22.43
2018-06-08T19:56:25.971Z,26.62
2018-06-08T19:58:54.087Z,22.17
2018-06-08T20:01:22.210Z,19.70
2018-06-08T20:03:50.703Z,19.20
2018-06-08T20:06:19.656Z,22.37
2018-06-08T20:08:47.971Z,22.53
2018-06-08T20:11:16.373Z,19.37
2018-06-08T20:13:44.837Z,21.17
2018-06-08T20:16:13.395Z,21.70
2018-06-08T20:18:42.245Z,24.50
2018-06-08T20:21:10.943Z,20.53
2018-06-08T20:23:40.289Z,21.20
2018-06-08T20:26:08.399Z,20.40
2018-06-08T20:28:36.519Z,19.70
2018-06-08T20:31:04.650Z,18.90
2018-06-08T20:33:32.790Z,25.13
2018-06-08T20:36:00.910Z,28.67
2018-06-08T20:38:29.022Z,31.50
2018-06-08T20:40:57.131Z,25.13
2018-06-08T20:43:25.608Z,38.40
2018-06-08T20:45:53.767Z,37.93
2018-06-08T20:48:21.882Z,40.03
2018-06-08T20:50:50.015Z,33.67
2018-06-08T20:53:18.135Z,33.80
2018-06-08T20:55:46.019Z,26.73
2018-06-08T20:58:20.273Z,23.77
2018-06-08T21:00:49.065Z,27.53
2018-06-08T21:03:17.526Z,26.97
2018-06-08T21:05:45.623Z,21.17
2018-06-08T21:08:13.748Z,24.10
2018-06-08T21:10:41.874Z,17.83
2018-06-08T21:13:09.994Z,18.57
2018-06-08T21:15:38.110Z,17.63
2018-06-08T21:18:06.244Z,21.93
2018-06-08T21:20:34.355Z,20.57
2018-06-08T21:23:02.492Z,18.63
2018-06-08T21:25:30.603Z,18.40
2018-06-08T21:27:58.722Z,18.07
2018-06-08T21:30:26.834Z,20.03
2018-06-08T21:32:54.946Z,20.10
2018-06-08T21:35:23.078Z,17.77
2018-06-08T21:37:51.202Z,16.53
2018-06-08T21:40:19.323Z,17.97
2018-06-08T21:42:47.439Z,25.33
2018-06-08T21:45:15.563Z,25.00
2018-06-08T21:47:43.671Z,30.03
2018-06-08T21:50:11.803Z,19.93
2018-06-08T21:52:39.911Z,19.40
2018-06-08T21:55:08.058Z,15.10
2018-06-08T21:57:36.167Z,16.97
2018-06-08T22:00:05.335Z,19.17
2018-06-08T22:02:33.503Z,18.37
2018-06-08T22:05:01.636Z,21.30
2018-06-08T22:07:29.766Z,20.20
2018-06-08T22:09:57.874Z,17.10
2018-06-08T22:12:26.030Z,16.63
2018-06-08T22:14:54.159Z,15.80
2018-06-08T22:17:22.354Z,17.43
2018-06-08T22:19:50.490Z,18.20
2018-06-08T22:22:18.614Z,15.43
2018-06-08T22:24:46.748Z,16.90
2018-06-08T22:27:14.878Z,17.23
2018-06-08T22:29:43.019Z,18.50
2018-06-08T22:32:11.161Z,18.33
2018-06-08T22:34:39.319Z,13.73
2018-06-08T22:37:07.441Z,14.47
2018-06-08T22:39:35.587Z,13.70
2018-06-08T22:42:03.707Z,13.33
2018-06-08T22:44:31.866Z,17.27
2018-06-08T22:47:00.004Z,20.30
2018-06-08T22:49:28.138Z,18.43
2018-06-08T22:51:56.264Z,24.40
2018-06-08T22:54:24.394Z,20.10
2018-06-08T22:56:52.543Z,26.20
2018-06-08T22:59:20.677Z,17.43
2018-06-08T23:01:48.794Z,21.60
2018-06-08T23:04:16.926Z,18.53
2018-06-08T23:06:45.039Z,16.87
2018-06-08T23:09:13.179Z,17.80
2018-06-08T23:11:41.302Z,17.67
2018-06-08T23:14:09.422Z,19.57
2018-06-08T23:16:37.568Z,18.33
2018-06-08T23:19:05.695Z,18.93
2018-06-08T23:21:33.867Z,23.53
2018-06-08T23:24:02.006Z,22.77
2018-06-08T23:26:30.162Z,20.07
2018-06-08T23:28:58.264Z,27.47
2018-06-08T23:31:26.390Z,23.53
2018-06-08T23:33:54.526Z,31.70
2018-06-08T23:36:22.666Z,33.83
2018-06-08T23:38:50.812Z,30.53
2018-06-08T23:41:18.943Z,25.33
2018-06-08T23:43:47.099Z,36.17
2018-06-08T23:46:15.200Z,28.77
2018-06-08T23:48:43.330Z,37.93
2018-06-08T23:51:11.467Z,34.77
2018-06-08T23:53:39.598Z,29.73
2018-06-08T23:56:07.764Z,25.57
2018-06-08T23:58:35.879Z,27.07
